createdAt,value
2022-09-16T00:00:36.745Z,2.87
2022-09-16T00:03:07.511Z,3.63
2022-09-16T00:05:41.189Z,2.70
2022-09-16T00:08:09.023Z,2.80
2022-09-16T00:10:37.362Z,2.43
2022-09-16T00:13:05.454Z,2.97
2022-09-16T00:15:33.406Z,2.40
2022-09-16T00:18:01.752Z,3.07
2022-09-16T00:20:32.419Z,2.60
2022-09-16T00:23:02.102Z,2.90
2022-09-16T00:25:29.849Z,2.63
2022-09-16T00:27:57.846Z,2.13
2022-09-16T00:30:25.571Z,2.97
2022-09-16T00:32:55.442Z,3.10
2022-09-16T00:35:23.819Z,2.93
2022-09-16T00:37:51.812Z,2.80
2022-09-16T00:40:21.619Z,2.53
2022-09-16T00:42:50.468Z,2.50
2022-09-16T00:45:19.620Z,2.57
2022-09-16T00:47:50.602Z,2.80
2022-09-16T00:50:22.107Z,3.03
2022-09-16T00:52:51.556Z,2.40
2022-09-16T00:55:21.140Z,2.27
2022-09-16T00:57:53.582Z,2.67
2022-09-16T01:00:22.065Z,2.80
2022-09-16T01:02:51.458Z,2.60
2022-09-16T01:05:21.189Z,2.17
2022-09-16T01:07:50.091Z,2.40
2022-09-16T01:10:19.674Z,2.30
2022-09-16T01:12:49.215Z,2.47
2022-09-16T01:15:19.163Z,2.77
2022-09-16T01:17:50.772Z,2.57
2022-09-16T01:20:39.659Z,2.10
2022-09-16T01:23:15.147Z,2.60
2022-09-16T01:25:50.617Z,2.73
2022-09-16T01:28:32.898Z,2.90
2022-09-16T01:31:08.676Z,2.40
2022-09-16T01:33:40.947Z,2.13
2022-09-16T01:36:18.016Z,2.50
2022-09-16T01:38:58.569Z,2.77
2022-09-16T01:41:29.807Z,2.30
2022-09-16T01:44:00.519Z,2.07
2022-09-16T01:46:33.519Z,3.23
2022-09-16T01:49:03.724Z,2.60
2022-09-16T01:51:34.073Z,2.10
2022-09-16T01:54:05.194Z,2.17
2022-09-16T01:56:34.754Z,2.30
2022-09-16T01:59:05.944Z,2.20
2022-09-16T02:01:38.066Z,2.40
2022-09-16T02:04:09.585Z,2.10
2022-09-16T02:06:38.912Z,2.13
2022-09-16T02:09:09.432Z,3.33
2022-09-16T02:11:46.279Z,3.10
2022-09-16T02:14:15.428Z,2.20
2022-09-16T02:16:48.521Z,2.70
2022-09-16T02:19:20.608Z,2.93
2022-09-16T02:21:49.573Z,2.83
2022-09-16T02:24:19.478Z,2.70
2022-09-16T02:26:49.579Z,2.90
2022-09-16T02:29:20.643Z,2.90
2022-09-16T02:31:55.024Z,2.33
2022-09-16T02:34:26.969Z,2.50
2022-09-16T02:36:57.862Z,3.30
2022-09-16T02:39:29.195Z,2.30
2022-09-16T02:41:57.864Z,3.37
2022-09-16T02:44:26.492Z,3.07
2022-09-16T02:47:00.600Z,3.10
2022-09-16T02:49:31.723Z,2.50
2022-09-16T02:52:01.067Z,2.67
2022-09-16T02:54:35.663Z,3.03
2022-09-16T02:57:07.147Z,2.83
2022-09-16T02:59:36.105Z,3.30
2022-09-16T03:02:06.405Z,2.77
2022-09-16T03:04:35.833Z,2.77
2022-09-16T03:07:05.004Z,3.23
2022-09-16T03:09:33.149Z,3.87
2022-09-16T03:12:17.899Z,3.40
2022-09-16T03:14:54.372Z,3.43
2022-09-16T03:17:31.398Z,3.33
2022-09-16T03:20:05.332Z,3.43
2022-09-16T03:22:39.387Z,3.33
2022-09-16T03:25:13.091Z,3.37
2022-09-16T03:27:43.139Z,2.93
2022-09-16T03:30:13.764Z,3.30
2022-09-16T03:32:44.729Z,3.17
2022-09-16T03:35:15.420Z,3.60
2022-09-16T03:37:43.438Z,3.27
2022-09-16T03:40:12.264Z,3.20
2022-09-16T03:42:43.995Z,3.27
2022-09-16T03:45:14.785Z,3.83
2022-09-16T03:47:44.610Z,3.50
2022-09-16T03:50:12.233Z,3.60
2022-09-16T03:52:40.154Z,3.83
2022-09-16T03:55:08.622Z,3.60
2022-09-16T03:57:36.692Z,4.37
2022-09-16T04:00:05.270Z,4.37
2022-09-16T04:02:33.146Z,5.10
2022-09-16T04:05:02.489Z,4.33
2022-09-16T04:07:33.668Z,4.07
2022-09-16T04:10:03.413Z,3.67
2022-09-16T04:12:31.352Z,4.27
2022-09-16T04:15:00.879Z,4.47
2022-09-16T04:17:28.999Z,4.80
2022-09-16T04:19:56.928Z,4.20
2022-09-16T04:22:28.751Z,4.07
2022-09-16T04:24:56.724Z,4.13
2022-09-16T04:27:24.685Z,5.20
2022-09-16T04:29:52.401Z,4.17
2022-09-16T04:32:20.380Z,5.03
2022-09-16T04:34:48.514Z,3.67
2022-09-16T04:37:16.276Z,4.33
2022-09-16T04:39:47.000Z,4.40
2022-09-16T04:42:14.854Z,3.57
2022-09-16T04:44:44.845Z,4.50
2022-09-16T04:47:15.088Z,3.60
2022-09-16T04:49:43.493Z,4.23
2022-09-16T04:52:11.835Z,3.57
2022-09-16T04:54:39.844Z,4.50
2022-09-16T04:57:09.523Z,4.83
2022-09-16T04:59:37.675Z,4.73
2022-09-16T05:02:06.050Z,3.63
2022-09-16T05:04:34.179Z,4.50
2022-09-16T05:07:02.010Z,3.70
2022-09-16T05:09:29.858Z,4.23
2022-09-16T05:11:57.862Z,4.33
2022-09-16T05:14:27.613Z,3.83
2022-09-16T05:16:57.569Z,4.47
2022-09-16T05:19:27.690Z,4.53
2022-09-16T05:21:55.395Z,3.83
2022-09-16T05:24:23.371Z,3.80
2022-09-16T05:26:51.229Z,4.13
2022-09-16T05:29:19.200Z,4.73
2022-09-16T05:31:49.051Z,3.83
2022-09-16T05:34:18.041Z,3.47
2022-09-16T05:36:48.076Z,3.85
2022-09-16T05:39:25.885Z,4.57
2022-09-16T05:41:55.366Z,3.65
2022-09-16T05:44:23.414Z,3.83
2022-09-16T05:46:53.361Z,7.25
2022-09-16T05:49:21.748Z,3.00
2022-09-16T05:51:49.896Z,3.50
2022-09-16T05:54:18.902Z,4.80
2022-09-16T05:56:47.462Z,4.82
2022-09-16T05:59:16.257Z,5.47
2022-09-16T06:01:44.065Z,3.50
2022-09-16T06:04:14.058Z,7.05
2022-09-16T06:06:43.399Z,4.63
2022-09-16T06:09:12.364Z,3.22
2022-09-16T06:11:41.584Z,3.10
2022-09-16T06:14:10.199Z,5.82
2022-09-16T06:16:38.294Z,6.22
2022-09-16T06:19:07.343Z,4.70
2022-09-16T06:21:37.770Z,4.45
2022-09-16T06:24:09.700Z,4.00
2022-09-16T06:26:38.390Z,2.45
2022-09-16T06:29:06.957Z,2.92
2022-09-16T06:31:35.167Z,5.43
2022-09-16T06:34:03.221Z,2.92
2022-09-16T06:36:32.655Z,6.57
2022-09-16T06:39:01.809Z,2.80
2022-09-16T06:41:29.765Z,3.55
2022-09-16T06:43:57.853Z,2.75
2022-09-16T06:46:28.978Z,3.08
2022-09-16T06:48:59.297Z,2.50
2022-09-16T06:51:33.508Z,5.53
2022-09-16T06:54:03.400Z,3.85
2022-09-16T06:56:31.352Z,3.13
2022-09-16T06:59:00.434Z,3.03
2022-09-16T07:01:29.277Z,3.30
2022-09-16T07:03:59.682Z,2.83
2022-09-16T07:09:19.299Z,3.15
2022-09-16T07:11:47.127Z,2.85
2022-09-16T07:14:14.867Z,2.00
2022-09-16T07:16:43.253Z,2.58
2022-09-16T07:19:14.084Z,2.90
2022-09-16T07:21:41.969Z,2.45
2022-09-16T07:24:10.975Z,3.38
2022-09-16T07:26:40.872Z,3.70
2022-09-16T07:29:11.243Z,2.95
2022-09-16T07:31:39.302Z,3.40
2022-09-16T07:34:08.067Z,2.70
2022-09-16T07:36:36.992Z,3.20
2022-09-16T07:39:05.219Z,2.80
2022-09-16T07:41:36.055Z,2.63
2022-09-16T07:44:06.045Z,2.67
2022-09-16T07:46:34.467Z,2.63
2022-09-16T07:49:03.189Z,3.25
2022-09-16T07:51:31.414Z,3.10
2022-09-16T07:54:00.777Z,2.85
2022-09-16T07:56:29.641Z,2.90
2022-09-16T07:59:00.474Z,2.30
2022-09-16T08:01:31.372Z,2.20
2022-09-16T08:04:02.647Z,4.43
2022-09-16T08:06:31.517Z,2.40
2022-09-16T08:09:27.224Z,2.55
2022-09-16T08:11:51.103Z,2.58
2022-09-16T08:14:19.364Z,2.47
2022-09-16T08:16:51.908Z,3.33
2022-09-16T08:19:20.668Z,3.13
2022-09-16T08:21:48.403Z,3.17
2022-09-16T08:24:16.584Z,2.90
2022-09-16T08:26:46.429Z,3.00
2022-09-16T08:29:14.808Z,2.58
2022-09-16T08:31:45.108Z,2.47
2022-09-16T08:34:14.678Z,3.15
2022-09-16T08:36:42.964Z,2.65
2022-09-16T08:39:15.057Z,2.95
2022-09-16T08:41:48.157Z,3.83
2022-09-16T08:44:22.273Z,3.95
2022-09-16T08:46:54.902Z,3.15
2022-09-16T08:49:28.895Z,2.53
2022-09-16T08:51:57.089Z,3.30
2022-09-16T08:54:28.246Z,2.78
2022-09-16T08:56:57.821Z,3.55
2022-09-16T08:59:27.651Z,2.80
2022-09-16T09:01:58.784Z,2.78
2022-09-16T09:04:31.376Z,3.55
2022-09-16T09:07:02.881Z,3.05
2022-09-16T09:09:40.185Z,4.07
2022-09-16T09:12:11.976Z,2.95
2022-09-16T09:14:46.228Z,2.78
2022-09-16T09:17:17.023Z,3.05
2022-09-16T09:19:55.598Z,2.72
2022-09-16T09:22:29.191Z,3.00
2022-09-16T09:25:07.919Z,3.30
2022-09-16T09:27:40.606Z,2.95
2022-09-16T09:30:12.260Z,2.88
2022-09-16T09:32:52.566Z,3.63
2022-09-16T09:35:29.964Z,3.33
2022-09-16T09:38:12.976Z,2.95
2022-09-16T09:40:47.591Z,3.55
2022-09-16T09:43:16.406Z,3.78
2022-09-16T09:45:46.784Z,4.25
2022-09-16T09:48:20.022Z,3.65
2022-09-16T09:50:53.759Z,3.17
2022-09-16T09:53:25.291Z,4.00
2022-09-16T09:55:55.798Z,3.72
2022-09-16T09:58:27.124Z,5.45
2022-09-16T10:00:56.493Z,5.38
2022-09-16T10:03:25.746Z,3.42
2022-09-16T10:05:57.780Z,3.65
2022-09-16T10:08:28.485Z,4.15
2022-09-16T10:10:58.198Z,3.53
2022-09-16T10:13:27.065Z,4.50
2022-09-16T10:15:56.411Z,3.50
2022-09-16T10:18:26.605Z,3.63
2022-09-16T10:21:02.283Z,4.25
2022-09-16T10:23:30.652Z,3.47
2022-09-16T10:26:06.570Z,4.90
2022-09-16T10:28:34.516Z,3.05
2022-09-16T10:31:02.934Z,3.28
2022-09-16T10:33:32.089Z,4.70
2022-09-16T10:36:02.445Z,4.03
2022-09-16T10:38:36.396Z,3.13
2022-09-16T10:41:10.001Z,2.77
2022-09-16T10:43:39.205Z,3.20
2022-09-16T10:46:07.960Z,2.80
2022-09-16T10:48:36.811Z,2.20
2022-09-16T10:51:07.021Z,1.90
2022-09-16T10:53:39.189Z,2.43
2022-09-16T10:56:17.742Z,2.40
2022-09-16T10:58:45.509Z,2.50
2022-09-16T11:01:22.892Z,2.20
2022-09-16T11:04:00.991Z,2.47
2022-09-16T11:06:38.994Z,3.17
2022-09-16T11:09:10.331Z,3.07
2022-09-16T11:11:46.369Z,4.80
2022-09-16T11:14:19.185Z,3.77
2022-09-16T11:16:53.763Z,10.50
2022-09-16T11:19:27.789Z,2.13
2022-09-16T11:22:14.775Z,5.33
2022-09-16T11:24:57.651Z,4.57
2022-09-16T11:27:42.246Z,2.47
2022-09-16T11:30:13.969Z,2.30
2022-09-16T11:32:56.355Z,1.50
2022-09-16T11:35:31.359Z,1.30
2022-09-16T11:38:02.379Z,2.13
2022-09-16T11:40:35.295Z,2.25
2022-09-16T11:43:12.453Z,1.70
2022-09-16T11:45:46.396Z,1.35
2022-09-16T11:48:23.044Z,1.98
2022-09-16T11:50:54.894Z,2.30
2022-09-16T11:53:33.315Z,2.42
2022-09-16T11:56:08.249Z,2.30
2022-09-16T11:58:39.821Z,2.15
2022-09-16T12:01:14.296Z,1.95
2022-09-16T12:03:44.764Z,2.58
2022-09-16T12:06:14.815Z,1.60
2022-09-16T12:08:49.814Z,2.10
2022-09-16T12:11:27.571Z,2.40
2022-09-16T12:14:05.623Z,2.80
2022-09-16T12:16:38.115Z,2.38
2022-09-16T12:19:09.409Z,2.60
2022-09-16T12:21:40.551Z,1.93
2022-09-16T12:24:16.974Z,2.30
2022-09-16T12:26:48.043Z,1.50
2022-09-16T12:29:18.475Z,2.28
2022-09-16T12:31:50.182Z,2.00
2022-09-16T12:34:19.751Z,2.70
2022-09-16T12:36:49.897Z,2.72
2022-09-16T12:39:19.908Z,2.00
2022-09-16T12:41:57.469Z,2.60
2022-09-16T12:44:47.316Z,1.95
2022-09-16T12:47:26.905Z,2.03
2022-09-16T12:50:05.439Z,2.07
2022-09-16T12:52:40.867Z,1.87
2022-09-16T12:55:27.686Z,2.23
2022-09-16T12:58:07.641Z,1.60
2022-09-16T13:00:38.302Z,2.00
2022-09-16T13:03:11.987Z,1.83
2022-09-16T13:05:41.259Z,2.10
2022-09-16T13:08:20.035Z,1.93
2022-09-16T13:11:11.583Z,1.77
2022-09-16T13:13:47.675Z,1.93
2022-09-16T13:16:16.907Z,2.00
2022-09-16T13:18:47.491Z,2.77
2022-09-16T13:21:22.250Z,3.47
2022-09-16T13:23:53.612Z,2.50
2022-09-16T13:26:21.308Z,3.20
2022-09-16T13:28:49.595Z,3.10
2022-09-16T13:31:19.020Z,2.60
2022-09-16T13:33:49.252Z,3.20
2022-09-16T13:36:19.097Z,2.10
2022-09-16T13:38:49.908Z,2.77
2022-09-16T13:41:30.062Z,2.50
2022-09-16T13:43:58.482Z,2.53
2022-09-16T13:46:35.725Z,3.10
2022-09-16T13:49:21.760Z,4.00
2022-09-16T13:51:51.853Z,3.60
2022-09-16T13:54:21.930Z,3.13
2022-09-16T13:56:56.500Z,2.47
2022-09-16T13:59:35.105Z,2.67
2022-09-16T14:02:11.988Z,2.50
2022-09-16T14:04:50.295Z,2.60
2022-09-16T14:07:30.651Z,2.83
2022-09-16T14:10:01.638Z,1.90
2022-09-16T14:12:36.586Z,2.00
2022-09-16T14:15:04.666Z,2.00
2022-09-16T14:17:34.675Z,2.10
2022-09-16T14:20:02.679Z,1.87
2022-09-16T14:22:33.762Z,2.27
2022-09-16T14:25:07.204Z,2.13
2022-09-16T14:27:47.582Z,2.17
2022-09-16T14:30:17.233Z,2.37
2022-09-16T14:32:45.176Z,2.97
2022-09-16T14:35:18.575Z,2.33
2022-09-16T14:37:50.863Z,2.97
2022-09-16T14:40:20.909Z,2.43
2022-09-16T14:42:52.023Z,2.60
2022-09-16T14:45:20.938Z,3.00
2022-09-16T14:47:52.304Z,2.97
2022-09-16T14:50:22.444Z,2.53
2022-09-16T14:52:56.614Z,2.20
2022-09-16T14:55:25.664Z,2.43
2022-09-16T14:57:53.940Z,2.10
2022-09-16T15:00:22.499Z,2.60
2022-09-16T15:02:51.518Z,3.20
2022-09-16T15:05:23.477Z,2.37
2022-09-16T15:08:12.818Z,1.97
2022-09-16T15:10:51.995Z,2.00
2022-09-16T15:13:22.471Z,1.87
2022-09-16T15:15:51.951Z,2.47
2022-09-16T15:18:25.866Z,2.13
2022-09-16T15:21:04.270Z,2.07
2022-09-16T15:23:33.783Z,1.63
2022-09-16T15:26:08.991Z,1.93
2022-09-16T15:28:37.322Z,2.00
2022-09-16T15:31:08.446Z,1.90
2022-09-16T15:33:37.739Z,1.63
2022-09-16T15:36:08.011Z,1.90
2022-09-16T15:38:38.957Z,2.03
2022-09-16T15:41:14.606Z,2.13
2022-09-16T15:43:44.465Z,2.60
2022-09-16T15:46:16.894Z,3.17
2022-09-16T15:48:46.729Z,2.17
2022-09-16T15:51:28.932Z,2.03
2022-09-16T15:53:59.846Z,2.10
2022-09-16T15:56:34.062Z,2.00
2022-09-16T15:59:03.775Z,1.97
2022-09-16T16:01:44.390Z,2.30
2022-09-16T16:04:15.962Z,2.30
2022-09-16T16:06:48.786Z,2.40
2022-09-16T16:09:46.838Z,2.00
2022-09-16T16:12:18.467Z,2.40
2022-09-16T16:14:47.216Z,1.87
2022-09-16T16:17:18.731Z,2.13
2022-09-16T16:19:49.450Z,2.50
2022-09-16T16:22:20.617Z,2.00
2022-09-16T16:24:48.882Z,1.80
2022-09-16T16:27:18.616Z,2.23
2022-09-16T16:29:52.142Z,2.00
2022-09-16T16:32:19.857Z,2.20
2022-09-16T16:34:51.150Z,2.13
2022-09-16T16:37:44.557Z,2.33
2022-09-16T16:40:08.636Z,2.40
2022-09-16T16:42:38.410Z,2.60
2022-09-16T16:45:06.865Z,2.33
2022-09-16T16:47:34.979Z,1.80
2022-09-16T16:50:02.981Z,2.27
2022-09-16T16:52:30.701Z,2.00
2022-09-16T16:54:58.469Z,2.60
2022-09-16T16:57:26.489Z,1.80
2022-09-16T16:59:56.844Z,1.67
2022-09-16T17:02:24.902Z,2.07
2022-09-16T17:04:54.806Z,2.00
2022-09-16T17:07:27.323Z,2.10
2022-09-16T17:09:57.124Z,1.90
2022-09-16T17:12:25.435Z,2.07
2022-09-16T17:14:53.690Z,1.80
2022-09-16T17:17:27.596Z,1.53
2022-09-16T17:19:58.981Z,1.87
2022-09-16T17:22:27.773Z,2.33
2022-09-16T17:24:55.787Z,2.63
2022-09-16T17:27:27.193Z,2.10
2022-09-16T17:29:55.106Z,2.60
2022-09-16T17:32:25.033Z,3.27
2022-09-16T17:34:53.059Z,2.13
2022-09-16T17:37:21.015Z,3.00
2022-09-16T17:39:49.753Z,2.80
2022-09-16T17:42:21.025Z,2.47
2022-09-16T17:44:48.993Z,2.27
2022-09-16T17:47:16.800Z,2.07
2022-09-16T17:49:46.156Z,3.10
2022-09-16T17:52:13.816Z,2.57
2022-09-16T17:54:42.262Z,3.07
2022-09-16T17:57:11.355Z,2.13
2022-09-16T17:59:39.271Z,2.67
2022-09-16T18:02:09.523Z,2.40
2022-09-16T18:04:37.303Z,2.40
2022-09-16T18:07:06.520Z,2.27
2022-09-16T18:09:34.465Z,2.80
2022-09-16T18:12:02.321Z,2.27
2022-09-16T18:14:30.222Z,3.00
2022-09-16T18:16:58.101Z,3.00
2022-09-16T18:19:26.304Z,2.90
2022-09-16T18:21:54.501Z,2.97
2022-09-16T18:24:24.681Z,2.80
2022-09-16T18:26:52.314Z,2.30
2022-09-16T18:29:20.519Z,2.50
2022-09-16T18:31:49.340Z,3.30
2022-09-16T18:34:17.926Z,2.97
2022-09-16T18:36:46.395Z,3.13
2022-09-16T18:39:15.395Z,3.07
2022-09-16T18:41:45.633Z,2.40
2022-09-16T18:44:15.269Z,3.10
2022-09-16T18:46:44.293Z,2.70
2022-09-16T18:49:14.514Z,2.73
2022-09-16T18:51:47.224Z,2.53
2022-09-16T18:54:18.549Z,2.50
2022-09-16T18:56:48.093Z,2.50
2022-09-16T18:59:21.434Z,2.93
2022-09-16T19:01:50.647Z,3.37
2022-09-16T19:04:19.659Z,3.87
2022-09-16T19:06:50.356Z,3.70
2022-09-16T19:09:19.377Z,3.43
2022-09-16T19:11:49.548Z,3.70
2022-09-16T19:14:17.488Z,3.80
2022-09-16T19:16:46.273Z,3.07
2022-09-16T19:19:15.149Z,3.20
2022-09-16T19:21:43.679Z,3.07
2022-09-16T19:24:14.141Z,3.03
2022-09-16T19:26:42.467Z,3.87
2022-09-16T19:29:13.289Z,2.43
2022-09-16T19:31:41.979Z,2.60
2022-09-16T19:34:10.046Z,2.40
2022-09-16T19:36:38.429Z,3.27
2022-09-16T19:39:08.670Z,3.67
2022-09-16T19:41:37.282Z,3.90
2022-09-16T19:44:06.017Z,4.03
2022-09-16T19:46:36.527Z,4.60
2022-09-16T19:49:05.458Z,4.27
2022-09-16T19:51:33.745Z,4.53
2022-09-16T19:54:01.815Z,4.50
2022-09-16T19:56:30.713Z,5.03
2022-09-16T19:58:58.770Z,5.87
2022-09-16T20:01:28.412Z,4.87
2022-09-16T20:03:58.270Z,4.13
2022-09-16T20:06:27.908Z,5.20
2022-09-16T20:08:56.838Z,4.20
2022-09-16T20:11:27.515Z,4.20
2022-09-16T20:13:56.963Z,5.13
2022-09-16T20:16:26.393Z,4.87
2022-09-16T20:18:54.512Z,4.20
2022-09-16T20:21:25.713Z,4.30
2022-09-16T20:23:54.099Z,4.40
2022-09-16T20:26:25.432Z,4.60
2022-09-16T20:28:54.508Z,4.40
2022-09-16T20:31:24.798Z,4.40
2022-09-16T20:33:52.729Z,4.87
2022-09-16T20:36:21.272Z,4.20
2022-09-16T20:38:50.971Z,4.90
2022-09-16T20:41:21.185Z,4.93
2022-09-16T20:43:49.526Z,5.27
2022-09-16T20:46:18.498Z,4.93
2022-09-16T20:48:46.858Z,4.20
2022-09-16T20:51:15.320Z,4.77
2022-09-16T20:53:43.757Z,4.77
2022-09-16T20:56:13.834Z,5.00
2022-09-16T20:58:43.401Z,5.20
2022-09-16T21:01:13.738Z,4.83
2022-09-16T21:03:41.992Z,4.70
2022-09-16T21:06:10.697Z,4.90
2022-09-16T21:08:38.610Z,4.83
2022-09-16T21:11:07.558Z,5.17
2022-09-16T21:13:36.850Z,4.73
2022-09-16T21:16:05.128Z,5.17
2022-09-16T21:18:33.192Z,5.00
2022-09-16T21:21:01.849Z,4.93
2022-09-16T21:23:30.230Z,5.50
2022-09-16T21:26:02.980Z,4.13
2022-09-16T21:28:31.863Z,4.53
2022-09-16T21:31:02.233Z,5.27
2022-09-16T21:33:30.784Z,4.47
2022-09-16T21:35:59.189Z,5.30
2022-09-16T21:38:28.557Z,4.80
2022-09-16T21:40:57.924Z,5.17
2022-09-16T21:43:27.134Z,4.63
2022-09-16T21:45:55.505Z,5.17
2022-09-16T21:48:27.116Z,5.13
2022-09-16T21:50:55.512Z,5.57
2022-09-16T21:53:23.938Z,5.10
2022-09-16T21:55:51.988Z,5.17
2022-09-16T21:58:19.733Z,5.93
2022-09-16T22:00:47.559Z,5.67
2022-09-16T22:03:15.777Z,4.47
2022-09-16T22:05:45.036Z,4.70
2022-09-16T22:08:15.210Z,4.50
2022-09-16T22:10:43.242Z,5.13
2022-09-16T22:13:11.186Z,5.30
2022-09-16T22:15:42.608Z,4.30
2022-09-16T22:18:10.478Z,4.67
2022-09-16T22:20:38.683Z,5.77
2022-09-16T22:23:08.345Z,5.67
2022-09-16T22:25:36.574Z,5.70
2022-09-16T22:28:04.520Z,5.37
2022-09-16T22:30:34.416Z,5.73
2022-09-16T22:33:02.414Z,5.40
2022-09-16T22:35:30.206Z,5.30
2022-09-16T22:37:57.926Z,5.50
2022-09-16T22:40:27.447Z,5.20
2022-09-16T22:42:56.763Z,5.37
2022-09-16T22:45:25.821Z,5.80
2022-09-16T22:47:53.775Z,5.80
2022-09-16T22:50:21.475Z,5.13
2022-09-16T22:52:49.239Z,5.53
2022-09-16T22:55:18.434Z,5.77
2022-09-16T22:57:48.044Z,5.60
2022-09-16T23:00:16.661Z,5.80
2022-09-16T23:02:44.540Z,5.23
2022-09-16T23:05:13.473Z,5.50
2022-09-16T23:07:41.243Z,5.30
2022-09-16T23:10:10.798Z,5.93
2022-09-16T23:12:40.227Z,6.00
2022-09-16T23:15:11.598Z,5.07
2022-09-16T23:17:41.209Z,5.87
2022-09-16T23:20:10.420Z,6.10
2022-09-16T23:22:40.705Z,5.17
2022-09-16T23:25:08.817Z,6.57
2022-09-16T23:27:37.383Z,5.23
2022-09-16T23:30:05.849Z,5.50
2022-09-16T23:32:35.214Z,5.03
2022-09-16T23:35:03.488Z,6.30
2022-09-16T23:37:31.798Z,5.67
2022-09-16T23:40:02.341Z,5.50
2022-09-16T23:42:30.373Z,5.67
2022-09-16T23:44:58.378Z,5.13
2022-09-16T23:47:26.106Z,6.73
2022-09-16T23:49:55.476Z,5.60
2022-09-16T23:52:25.103Z,5.93
2022-09-16T23:54:52.844Z,5.23
2022-09-16T23:57:20.712Z,6.40
2022-09-16T23:59:51.871Z,6.50
